sensor_id;sensor_type;location;lat;lon;timestamp;pressure;altitude;pressure_sealevel;temperature;humidity
11808;BME280;5961;42.640;23.380;2023-04-16T00:00:23;93503.63;;;12.80;55.41
11808;BME280;5961;42.640;23.380;2023-04-16T00:02:51;93522.16;;;12.95;55.45
11808;BME280;5961;42.640;23.380;2023-04-16T00:05:18;93524.84;;;12.95;56.04
11808;BME280;5961;42.640;23.380;2023-04-16T00:07:45;93529.06;;;13.00;56.62
11808;BME280;5961;42.640;23.380;2023-04-16T00:10:13;93524.31;;;12.86;55.97
11808;BME280;5961;42.640;23.380;2023-04-16T00:12:40;93534.31;;;12.93;56.34
11808;BME280;5961;42.640;23.380;2023-04-16T00:15:08;93529.00;;;12.93;56.21
11808;BME280;5961;42.640;23.380;2023-04-16T00:17:35;93525.19;;;12.94;56.32
11808;BME280;5961;42.640;23.380;2023-04-16T00:20:04;93518.91;;;12.83;55.87
11808;BME280;5961;42.640;23.380;2023-04-16T00:22:33;93531.94;;;12.88;55.86
11808;BME280;5961;42.640;23.380;2023-04-16T00:25:00;93523.22;;;12.91;55.81
11808;BME280;5961;42.640;23.380;2023-04-16T00:27:27;93526.91;;;12.83;55.21
11808;BME280;5961;42.640;23.380;2023-04-16T00:29:54;93516.13;;;12.76;55.60
11808;BME280;5961;42.640;23.380;2023-04-16T00:32:22;93523.72;;;12.74;55.08
11808;BME280;5961;42.640;23.380;2023-04-16T00:34:49;93479.38;;;12.39;54.78
11808;BME280;5961;42.640;23.380;2023-04-16T00:37:17;93509.47;;;12.62;55.13
11808;BME280;5961;42.640;23.380;2023-04-16T00:39:44;93523.84;;;12.58;55.04
11808;BME280;5961;42.640;23.380;2023-04-16T00:42:11;93518.91;;;12.56;55.13
11808;BME280;5961;42.640;23.380;2023-04-16T00:44:39;93517.72;;;12.54;55.19
11808;BME280;5961;42.640;23.380;2023-04-16T00:47:06;93514.22;;;12.50;55.40
11808;BME280;5961;42.640;23.380;2023-04-16T00:49:33;93511.47;;;12.46;55.44
11808;BME280;5961;42.640;23.380;2023-04-16T00:52:01;93514.03;;;12.39;55.34
11808;BME280;5961;42.640;23.380;2023-04-16T00:54:30;93482.47;;;11.96;55.88
11808;BME280;5961;42.640;23.380;2023-04-16T00:56:58;93507.78;;;12.09;56.55
11808;BME280;5961;42.640;23.380;2023-04-16T00:59:26;93510.69;;;12.00;56.75
11808;BME280;5961;42.640;23.380;2023-04-16T01:01:53;93513.97;;;11.94;56.96
11808;BME280;5961;42.640;23.380;2023-04-16T01:04:20;93516.22;;;11.92;57.46
11808;BME280;5961;42.640;23.380;2023-04-16T01:06:47;93519.97;;;11.87;57.46
11808;BME280;5961;42.640;23.380;2023-04-16T01:09:15;93511.28;;;11.71;57.81
11808;BME280;5961;42.640;23.380;2023-04-16T01:11:44;93506.00;;;11.55;58.49
11808;BME280;5961;42.640;23.380;2023-04-16T01:14:11;93512.03;;;11.52;58.57
11808;BME280;5961;42.640;23.380;2023-04-16T01:16:38;93481.59;;;11.15;59.44
11808;BME280;5961;42.640;23.380;2023-04-16T01:19:05;93505.34;;;11.24;59.81
11808;BME280;5961;42.640;23.380;2023-04-16T01:21:34;93521.44;;;11.31;59.70
11808;BME280;5961;42.640;23.380;2023-04-16T01:24:02;93510.72;;;11.27;59.67
11808;BME280;5961;42.640;23.380;2023-04-16T01:26:29;93508.34;;;11.22;59.71
11808;BME280;5961;42.640;23.380;2023-04-16T01:28:56;93488.66;;;11.08;59.92
11808;BME280;5961;42.640;23.380;2023-04-16T01:31:24;93509.47;;;11.21;59.64
11808;BME280;5961;42.640;23.380;2023-04-16T01:33:51;93507.56;;;11.22;60.68
11808;BME280;5961;42.640;23.380;2023-04-16T01:36:18;93509.63;;;11.28;60.48
11808;BME280;5961;42.640;23.380;2023-04-16T01:38:47;93501.72;;;11.32;60.41
11808;BME280;5961;42.640;23.380;2023-04-16T01:41:14;93507.94;;;11.39;61.04
11808;BME280;5961;42.640;23.380;2023-04-16T01:43:41;93503.47;;;11.43;60.63
11808;BME280;5961;42.640;23.380;2023-04-16T01:46:13;93488.81;;;11.34;61.05
11808;BME280;5961;42.640;23.380;2023-04-16T01:48:40;93514.53;;;11.65;60.80
11808;BME280;5961;42.640;23.380;2023-04-16T01:51:08;93493.94;;;11.62;61.07
11808;BME280;5961;42.640;23.380;2023-04-16T01:53:35;93495.78;;;11.77;60.36
11808;BME280;5961;42.640;23.380;2023-04-16T01:56:05;93496.28;;;11.82;59.56
11808;BME280;5961;42.640;23.380;2023-04-16T01:58:32;93468.88;;;11.63;58.70
11808;BME280;5961;42.640;23.380;2023-04-16T02:00:59;93496.50;;;11.74;58.84
11808;BME280;5961;42.640;23.380;2023-04-16T02:03:26;93493.09;;;11.57;58.87
11808;BME280;5961;42.640;23.380;2023-04-16T02:05:54;93502.34;;;11.25;59.70
11808;BME280;5961;42.640;23.380;2023-04-16T02:08:21;93492.22;;;11.15;60.83
11808;BME280;5961;42.640;23.380;2023-04-16T02:10:49;93472.75;;;10.92;61.33
11808;BME280;5961;42.640;23.380;2023-04-16T02:13:17;93496.75;;;10.95;61.56
11808;BME280;5961;42.640;23.380;2023-04-16T02:15:45;93493.03;;;10.81;62.69
11808;BME280;5961;42.640;23.380;2023-04-16T02:18:13;93493.81;;;10.66;63.53
11808;BME280;5961;42.640;23.380;2023-04-16T02:20:41;93487.56;;;10.58;63.98
11808;BME280;5961;42.640;23.380;2023-04-16T02:23:08;93479.34;;;10.48;64.21
11808;BME280;5961;42.640;23.380;2023-04-16T02:25:40;93487.75;;;10.50;64.33
11808;BME280;5961;42.640;23.380;2023-04-16T02:28:07;93484.56;;;10.44;64.30
11808;BME280;5961;42.640;23.380;2023-04-16T02:30:36;93474.13;;;10.35;64.48
11808;BME280;5961;42.640;23.380;2023-04-16T02:33:04;93479.88;;;10.37;64.49
11808;BME280;5961;42.640;23.380;2023-04-16T02:35:32;93476.09;;;10.38;65.08
11808;BME280;5961;42.640;23.380;2023-04-16T02:37:59;93477.63;;;10.39;64.98
11808;BME280;5961;42.640;23.380;2023-04-16T02:40:26;93463.34;;;10.28;65.06
11808;BME280;5961;42.640;23.380;2023-04-16T02:42:53;93470.47;;;10.24;65.38
11808;BME280;5961;42.640;23.380;2023-04-16T02:45:21;93470.63;;;10.31;65.71
11808;BME280;5961;42.640;23.380;2023-04-16T02:47:50;93482.09;;;10.35;66.02
11808;BME280;5961;42.640;23.380;2023-04-16T02:50:17;93449.72;;;10.14;65.85
11808;BME280;5961;42.640;23.380;2023-04-16T02:52:44;93472.59;;;10.34;66.32
11808;BME280;5961;42.640;23.380;2023-04-16T02:55:12;93471.81;;;10.34;66.63
11808;BME280;5961;42.640;23.380;2023-04-16T02:57:39;93468.03;;;10.35;66.41
11808;BME280;5961;42.640;23.380;2023-04-16T03:00:08;93464.78;;;10.41;65.78
11808;BME280;5961;42.640;23.380;2023-04-16T03:02:35;93479.25;;;10.44;65.79
11808;BME280;5961;42.640;23.380;2023-04-16T03:05:04;93466.94;;;10.36;66.09
11808;BME280;5961;42.640;23.380;2023-04-16T03:07:32;93466.06;;;10.32;66.39
11808;BME280;5961;42.640;23.380;2023-04-16T03:09:59;93452.88;;;10.20;66.46
11808;BME280;5961;42.640;23.380;2023-04-16T03:12:26;93472.06;;;10.29;66.43
11808;BME280;5961;42.640;23.380;2023-04-16T03:14:53;93476.63;;;10.28;66.56
11808;BME280;5961;42.640;23.380;2023-04-16T03:17:21;93482.69;;;10.29;66.84
11808;BME280;5961;42.640;23.380;2023-04-16T03:19:48;93478.16;;;10.29;66.61
11808;BME280;5961;42.640;23.380;2023-04-16T03:22:17;93478.59;;;10.31;66.68
11808;BME280;5961;42.640;23.380;2023-04-16T03:24:44;93462.22;;;10.29;66.23
11808;BME280;5961;42.640;23.380;2023-04-16T03:27:11;93465.41;;;10.35;66.44
11808;BME280;5961;42.640;23.380;2023-04-16T03:29:38;93464.78;;;10.41;66.18
11808;BME280;5961;42.640;23.380;2023-04-16T03:32:05;93453.56;;;10.32;65.74
11808;BME280;5961;42.640;23.380;2023-04-16T03:34:32;93473.09;;;10.56;65.92
11808;BME280;5961;42.640;23.380;2023-04-16T03:37:01;93475.81;;;10.59;65.72
11808;BME280;5961;42.640;23.380;2023-04-16T03:39:31;93465.38;;;10.51;66.10
11808;BME280;5961;42.640;23.380;2023-04-16T03:41:58;93468.63;;;10.44;66.13
11808;BME280;5961;42.640;23.380;2023-04-16T03:44:26;93476.78;;;10.51;66.20
11808;BME280;5961;42.640;23.380;2023-04-16T03:46:53;93476.94;;;10.42;66.94
11808;BME280;5961;42.640;23.380;2023-04-16T03:49:20;93476.44;;;10.37;67.32
11808;BME280;5961;42.640;23.380;2023-04-16T03:51:47;93475.94;;;10.31;67.26
11808;BME280;5961;42.640;23.380;2023-04-16T03:54:14;93485.34;;;10.29;67.42
11808;BME280;5961;42.640;23.380;2023-04-16T03:56:43;93480.81;;;10.29;67.95
11808;BME280;5961;42.640;23.380;2023-04-16T03:59:10;93476.78;;;10.35;67.58
11808;BME280;5961;42.640;23.380;2023-04-16T04:01:40;93491.19;;;10.34;67.43
11808;BME280;5961;42.640;23.380;2023-04-16T04:04:07;93494.59;;;10.35;67.53
11808;BME280;5961;42.640;23.380;2023-04-16T04:06:34;93495.66;;;10.30;67.85
11808;BME280;5961;42.640;23.380;2023-04-16T04:09:01;93503.44;;;10.39;67.49
11808;BME280;5961;42.640;23.380;2023-04-16T04:11:28;93501.81;;;10.34;67.30
11808;BME280;5961;42.640;23.380;2023-04-16T04:13:57;93465.72;;;10.02;67.83
11808;BME280;5961;42.640;23.380;2023-04-16T04:16:24;93494.00;;;10.26;67.96
11808;BME280;5961;42.640;23.380;2023-04-16T04:18:51;93501.97;;;10.26;68.08
11808;BME280;5961;42.640;23.380;2023-04-16T04:21:19;93510.72;;;10.26;68.19
11808;BME280;5961;42.640;23.380;2023-04-16T04:23:46;93504.72;;;10.29;68.17
11808;BME280;5961;42.640;23.380;2023-04-16T04:26:14;93516.91;;;10.30;68.48
11808;BME280;5961;42.640;23.380;2023-04-16T04:28:41;93515.50;;;10.36;68.80
11808;BME280;5961;42.640;23.380;2023-04-16T04:31:10;93521.53;;;10.33;68.84
11808;BME280;5961;42.640;23.380;2023-04-16T04:33:37;93514.81;;;10.39;68.75
11808;BME280;5961;42.640;23.380;2023-04-16T04:36:04;93519.53;;;10.46;68.81
11808;BME280;5961;42.640;23.380;2023-04-16T04:38:32;93522.69;;;10.52;68.52
11808;BME280;5961;42.640;23.380;2023-04-16T04:40:59;93520.47;;;10.54;68.66
11808;BME280;5961;42.640;23.380;2023-04-16T04:43:26;93492.03;;;10.38;68.83
11808;BME280;5961;42.640;23.380;2023-04-16T04:45:53;93529.56;;;10.53;69.56
11808;BME280;5961;42.640;23.380;2023-04-16T04:48:21;93526.63;;;10.58;69.06
11808;BME280;5961;42.640;23.380;2023-04-16T04:50:51;93536.34;;;10.66;69.27
11808;BME280;5961;42.640;23.380;2023-04-16T04:53:18;93530.47;;;10.76;69.26
11808;BME280;5961;42.640;23.380;2023-04-16T04:55:45;93532.22;;;10.84;69.84
11808;BME280;5961;42.640;23.380;2023-04-16T04:58:13;93529.69;;;10.91;69.60
11808;BME280;5961;42.640;23.380;2023-04-16T05:00:40;93538.44;;;10.91;68.84
11808;BME280;5961;42.640;23.380;2023-04-16T05:03:09;93507.00;;;10.78;68.25
11808;BME280;5961;42.640;23.380;2023-04-16T05:05:38;93531.50;;;10.87;67.27
11808;BME280;5961;42.640;23.380;2023-04-16T05:08:06;93533.41;;;10.86;67.22
11808;BME280;5961;42.640;23.380;2023-04-16T05:10:33;93529.09;;;10.82;67.46
11808;BME280;5961;42.640;23.380;2023-04-16T05:13:00;93538.03;;;10.89;67.25
11808;BME280;5961;42.640;23.380;2023-04-16T05:15:27;93531.59;;;10.90;67.51
11808;BME280;5961;42.640;23.380;2023-04-16T05:17:54;93526.31;;;10.75;67.75
11808;BME280;5961;42.640;23.380;2023-04-16T05:20:22;93529.38;;;10.77;68.19
11808;BME280;5961;42.640;23.380;2023-04-16T05:22:54;93520.44;;;10.85;68.25
11808;BME280;5961;42.640;23.380;2023-04-16T05:25:30;93522.41;;;10.88;68.21
11808;BME280;5961;42.640;23.380;2023-04-16T05:27:58;93522.41;;;10.88;68.44
11808;BME280;5961;42.640;23.380;2023-04-16T05:30:26;93523.69;;;10.94;68.55
11808;BME280;5961;42.640;23.380;2023-04-16T05:32:53;93520.09;;;11.02;68.16
11808;BME280;5961;42.640;23.380;2023-04-16T05:35:23;93524.09;;;11.12;68.12
11808;BME280;5961;42.640;23.380;2023-04-16T05:37:50;93523.19;;;11.23;67.73
11808;BME280;5961;42.640;23.380;2023-04-16T05:40:19;93522.63;;;11.33;67.17
11808;BME280;5961;42.640;23.380;2023-04-16T05:42:46;93501.63;;;11.28;66.70
11808;BME280;5961;42.640;23.380;2023-04-16T05:45:13;93528.69;;;11.49;66.72
11808;BME280;5961;42.640;23.380;2023-04-16T05:47:40;93525.72;;;11.54;66.39
11808;BME280;5961;42.640;23.380;2023-04-16T05:50:08;93514.97;;;11.47;66.54
11808;BME280;5961;42.640;23.380;2023-04-16T05:52:36;93539.78;;;11.71;66.78
11808;BME280;5961;42.640;23.380;2023-04-16T05:55:03;93534.16;;;11.76;66.02
11808;BME280;5961;42.640;23.380;2023-04-16T05:57:32;93537.81;;;11.87;65.70
11808;BME280;5961;42.640;23.380;2023-04-16T05:59:59;93516.59;;;11.90;65.84
11808;BME280;5961;42.640;23.380;2023-04-16T06:02:26;93521.88;;;12.09;65.94
11808;BME280;5961;42.640;23.380;2023-04-16T06:04:54;93520.91;;;12.18;65.63
11808;BME280;5961;42.640;23.380;2023-04-16T06:07:22;93518.06;;;12.30;65.28
11808;BME280;5961;42.640;23.380;2023-04-16T06:09:49;93503.91;;;12.26;64.58
11808;BME280;5961;42.640;23.380;2023-04-16T06:12:16;93501.41;;;12.36;64.32
11808;BME280;5961;42.640;23.380;2023-04-16T06:14:44;93522.69;;;12.55;64.04
11808;BME280;5961;42.640;23.380;2023-04-16T06:17:11;93509.34;;;12.55;62.99
11808;BME280;5961;42.640;23.380;2023-04-16T06:19:38;93520.22;;;12.70;62.95
11808;BME280;5961;42.640;23.380;2023-04-16T06:22:06;93515.84;;;12.81;62.77
11808;BME280;5961;42.640;23.380;2023-04-16T06:24:33;93517.09;;;12.87;62.71
11808;BME280;5961;42.640;23.380;2023-04-16T06:27:00;93519.13;;;12.97;62.33
11808;BME280;5961;42.640;23.380;2023-04-16T06:29:27;93522.31;;;13.06;62.25
11808;BME280;5961;42.640;23.380;2023-04-16T06:31:56;93524.75;;;13.14;61.89
11808;BME280;5961;42.640;23.380;2023-04-16T06:34:23;93518.72;;;13.21;61.91
11808;BME280;5961;42.640;23.380;2023-04-16T06:36:50;93520.03;;;13.31;61.31
11808;BME280;5961;42.640;23.380;2023-04-16T06:39:18;93507.44;;;13.31;61.30
11808;BME280;5961;42.640;23.380;2023-04-16T06:41:46;93519.84;;;13.46;60.86
11808;BME280;5961;42.640;23.380;2023-04-16T06:44:13;93516.84;;;13.51;60.86
11808;BME280;5961;42.640;23.380;2023-04-16T06:46:40;93524.50;;;13.53;60.84
11808;BME280;5961;42.640;23.380;2023-04-16T06:49:09;93523.06;;;13.59;60.47
11808;BME280;5961;42.640;23.380;2023-04-16T06:51:36;93527.72;;;13.65;60.26
11808;BME280;5961;42.640;23.380;2023-04-16T06:54:03;93527.41;;;13.70;60.32
11808;BME280;5961;42.640;23.380;2023-04-16T06:56:30;93529.34;;;13.73;60.04
11808;BME280;5961;42.640;23.380;2023-04-16T06:58:58;93525.16;;;13.76;59.88
11808;BME280;5961;42.640;23.380;2023-04-16T07:01:25;93470.69;;;13.47;59.88
11808;BME280;5961;42.640;23.380;2023-04-16T07:03:53;93518.78;;;13.84;59.85
11808;BME280;5961;42.640;23.380;2023-04-16T07:06:22;93519.59;;;13.88;59.87
11808;BME280;5961;42.640;23.380;2023-04-16T07:39:25;93529.81;;;14.16;59.51
11808;BME280;5961;42.640;23.380;2023-04-16T07:42:20;93529.19;;;14.26;59.54
11808;BME280;5961;42.640;23.380;2023-04-16T07:44:48;93532.69;;;14.34;59.08
11808;BME280;5961;42.640;23.380;2023-04-16T07:47:18;93521.66;;;14.39;59.20
11808;BME280;5961;42.640;23.380;2023-04-16T07:49:48;93525.53;;;14.45;59.04
11808;BME280;5961;42.640;23.380;2023-04-16T07:52:16;93526.72;;;14.47;58.93
11808;BME280;5961;42.640;23.380;2023-04-16T07:54:46;93517.16;;;14.46;59.57
11808;BME280;5961;42.640;23.380;2023-04-16T07:57:16;93523.31;;;14.50;59.02
11808;BME280;5961;42.640;23.380;2023-04-16T07:59:45;93520.69;;;14.57;58.80
11808;BME280;5961;42.640;23.380;2023-04-16T08:02:15;93522.63;;;14.60;58.31
11808;BME280;5961;42.640;23.380;2023-04-16T08:04:43;93514.28;;;14.65;58.63
11808;BME280;5961;42.640;23.380;2023-04-16T08:07:12;93514.31;;;14.72;58.86
11808;BME280;5961;42.640;23.380;2023-04-16T08:09:50;93508.22;;;14.72;58.36
11808;BME280;5961;42.640;23.380;2023-04-16T08:12:20;93510.59;;;14.84;57.15
11808;BME280;5961;42.640;23.380;2023-04-16T08:14:48;93519.88;;;14.97;57.59
11808;BME280;5961;42.640;23.380;2023-04-16T08:17:28;93518.38;;;15.03;58.13
11808;BME280;5961;42.640;23.380;2023-04-16T08:20:08;93506.56;;;15.04;57.78
11808;BME280;5961;42.640;23.380;2023-04-16T08:22:37;93504.22;;;15.03;57.80
11808;BME280;5961;42.640;23.380;2023-04-16T08:25:08;93487.78;;;15.01;58.31
11808;BME280;5961;42.640;23.380;2023-04-16T08:27:40;93513.16;;;15.21;58.08
11808;BME280;5961;42.640;23.380;2023-04-16T08:30:09;93497.06;;;15.14;57.84
11808;BME280;5961;42.640;23.380;2023-04-16T08:32:39;93507.84;;;15.28;58.25
11808;BME280;5961;42.640;23.380;2023-04-16T08:35:08;93507.50;;;15.36;58.40
11808;BME280;5961;42.640;23.380;2023-04-16T08:37:37;93506.41;;;15.45;58.34
11808;BME280;5961;42.640;23.380;2023-04-16T08:40:08;93503.41;;;15.53;58.31
11808;BME280;5961;42.640;23.380;2023-04-16T08:42:39;93505.75;;;15.65;57.19
11808;BME280;5961;42.640;23.380;2023-04-16T08:45:15;93499.69;;;15.75;56.64
11808;BME280;5961;42.640;23.380;2023-04-16T08:47:45;93500.50;;;15.83;56.63
11808;BME280;5961;42.640;23.380;2023-04-16T08:50:16;93498.97;;;15.89;56.35
11808;BME280;5961;42.640;23.380;2023-04-16T08:52:51;93505.13;;;16.00;55.90
11808;BME280;5961;42.640;23.380;2023-04-16T08:55:30;93486.38;;;16.04;56.04
11808;BME280;5961;42.640;23.380;2023-04-16T08:58:01;93492.13;;;16.06;56.90
11808;BME280;5961;42.640;23.380;2023-04-16T09:00:31;93471.41;;;15.96;56.59
11808;BME280;5961;42.640;23.380;2023-04-16T09:03:02;93485.25;;;16.15;56.04
11808;BME280;5961;42.640;23.380;2023-04-16T09:05:32;93493.69;;;16.21;55.66
11808;BME280;5961;42.640;23.380;2023-04-16T09:08:00;93490.28;;;16.27;54.96
11808;BME280;5961;42.640;23.380;2023-04-16T09:10:30;93477.63;;;16.28;54.37
11808;BME280;5961;42.640;23.380;2023-04-16T09:13:00;93474.56;;;16.33;53.74
11808;BME280;5961;42.640;23.380;2023-04-16T09:15:28;93479.19;;;16.43;54.00
11808;BME280;5961;42.640;23.380;2023-04-16T09:17:56;93479.19;;;16.50;54.49
11808;BME280;5961;42.640;23.380;2023-04-16T09:20:25;93479.19;;;16.54;54.10
11808;BME280;5961;42.640;23.380;2023-04-16T09:22:53;93484.97;;;16.56;54.08
11808;BME280;5961;42.640;23.380;2023-04-16T09:25:22;93476.16;;;16.59;53.84
11808;BME280;5961;42.640;23.380;2023-04-16T09:27:53;93484.59;;;16.64;54.06
11808;BME280;5961;42.640;23.380;2023-04-16T09:30:24;93489.19;;;16.67;54.10
11808;BME280;5961;42.640;23.380;2023-04-16T09:33:13;93481.53;;;16.69;53.96
11808;BME280;5961;42.640;23.380;2023-04-16T09:35:45;93485.34;;;16.68;53.54
11808;BME280;5961;42.640;23.380;2023-04-16T09:38:15;93482.31;;;16.77;52.96
11808;BME280;5961;42.640;23.380;2023-04-16T09:40:44;93478.09;;;16.79;53.09
11808;BME280;5961;42.640;23.380;2023-04-16T09:43:15;93439.75;;;16.54;52.99
11808;BME280;5961;42.640;23.380;2023-04-16T09:45:49;93470.41;;;16.74;53.98
11808;BME280;5961;42.640;23.380;2023-04-16T09:48:28;93462.75;;;16.69;53.80
11808;BME280;5961;42.640;23.380;2023-04-16T09:50:58;93466.22;;;16.77;53.37
11808;BME280;5961;42.640;23.380;2023-04-16T09:53:30;93463.50;;;16.80;53.46
11808;BME280;5961;42.640;23.380;2023-04-16T09:55:59;93436.69;;;16.66;53.77
11808;BME280;5961;42.640;23.380;2023-04-16T09:58:30;93455.84;;;16.82;53.48
11808;BME280;5961;42.640;23.380;2023-04-16T10:01:00;93464.28;;;16.84;53.67
11808;BME280;5961;42.640;23.380;2023-04-16T10:03:29;93459.28;;;16.86;53.30
11808;BME280;5961;42.640;23.380;2023-04-16T10:06:07;93450.84;;;16.88;52.49
11808;BME280;5961;42.640;23.380;2023-04-16T10:08:36;93453.13;;;16.93;52.38
11808;BME280;5961;42.640;23.380;2023-04-16T10:11:06;93427.88;;;16.76;52.61
11808;BME280;5961;42.640;23.380;2023-04-16T10:13:37;93441.63;;;16.92;51.89
11808;BME280;5961;42.640;23.380;2023-04-16T10:16:08;93450.81;;;16.98;51.88
11808;BME280;5961;42.640;23.380;2023-04-16T10:18:37;93398.72;;;16.71;50.44
11808;BME280;5961;42.640;23.380;2023-04-16T10:21:06;93436.25;;;16.99;50.15
11808;BME280;5961;42.640;23.380;2023-04-16T10:23:38;93444.69;;;17.12;50.41
11808;BME280;5961;42.640;23.380;2023-04-16T10:26:07;93441.59;;;17.14;50.37
11808;BME280;5961;42.640;23.380;2023-04-16T10:28:37;93438.13;;;17.17;50.43
11808;BME280;5961;42.640;23.380;2023-04-16T10:31:07;93431.22;;;17.23;50.17
11808;BME280;5961;42.640;23.380;2023-04-16T10:33:38;93431.22;;;17.23;50.10
11808;BME280;5961;42.640;23.380;2023-04-16T10:36:07;93425.06;;;17.26;49.62
11808;BME280;5961;42.640;23.380;2023-04-16T10:38:40;93430.78;;;17.35;49.24
11808;BME280;5961;42.640;23.380;2023-04-16T10:41:08;93426.53;;;17.44;49.81
11808;BME280;5961;42.640;23.380;2023-04-16T10:43:43;93429.22;;;17.48;48.59
11808;BME280;5961;42.640;23.380;2023-04-16T10:46:20;93424.63;;;17.52;48.18
11808;BME280;5961;42.640;23.380;2023-04-16T10:48:51;93403.13;;;17.52;48.25
11808;BME280;5961;42.640;23.380;2023-04-16T10:51:37;93421.47;;;17.71;48.56
11808;BME280;5961;42.640;23.380;2023-04-16T10:54:20;93427.19;;;17.80;48.56
11808;BME280;5961;42.640;23.380;2023-04-16T10:56:50;93429.47;;;17.89;48.09
11808;BME280;5961;42.640;23.380;2023-04-16T10:59:21;93418.69;;;17.92;48.00
11808;BME280;5961;42.640;23.380;2023-04-16T11:01:52;93419.41;;;18.00;48.13
11808;BME280;5961;42.640;23.380;2023-04-16T11:04:34;93419.75;;;18.05;47.44
11808;BME280;5961;42.640;23.380;2023-04-16T11:07:04;93417.81;;;18.09;47.34
11808;BME280;5961;42.640;23.380;2023-04-16T11:09:49;93407.75;;;18.21;47.01
11808;BME280;5961;42.640;23.380;2023-04-16T11:12:18;93409.28;;;18.22;46.49
11808;BME280;5961;42.640;23.380;2023-04-16T11:14:51;93393.94;;;18.19;46.23
11808;BME280;5961;42.640;23.380;2023-04-16T11:17:21;93401.53;;;18.31;46.06
11808;BME280;5961;42.640;23.380;2023-04-16T11:19:49;93396.50;;;18.36;46.46
11808;BME280;5961;42.640;23.380;2023-04-16T11:22:18;93403.31;;;18.48;46.14
11808;BME280;5961;42.640;23.380;2023-04-16T11:24:52;93401.72;;;18.61;46.50
11808;BME280;5961;42.640;23.380;2023-04-16T11:27:20;93399.81;;;18.58;45.82
11808;BME280;5961;42.640;23.380;2023-04-16T11:29:59;93401.72;;;18.61;45.78
11808;BME280;5961;42.640;23.380;2023-04-16T11:32:30;93393.25;;;18.59;47.07
11808;BME280;5961;42.640;23.380;2023-04-16T11:34:59;93395.94;;;18.59;46.56
11808;BME280;5961;42.640;23.380;2023-04-16T11:37:31;93378.72;;;18.49;46.98
11808;BME280;5961;42.640;23.380;2023-04-16T11:40:02;93383.38;;;18.49;46.38
11808;BME280;5961;42.640;23.380;2023-04-16T11:42:32;93381.06;;;18.44;45.67
11808;BME280;5961;42.640;23.380;2023-04-16T11:45:07;93374.91;;;18.43;45.83
11808;BME280;5961;42.640;23.380;2023-04-16T11:47:42;93353.13;;;18.31;46.42
11808;BME280;5961;42.640;23.380;2023-04-16T11:50:19;93372.63;;;18.42;45.84
11808;BME280;5961;42.640;23.380;2023-04-16T11:52:48;93376.44;;;18.44;45.77
11808;BME280;5961;42.640;23.380;2023-04-16T11:55:18;93371.81;;;18.52;46.22
11808;BME280;5961;42.640;23.380;2023-04-16T11:57:50;93367.94;;;18.53;45.60
11808;BME280;5961;42.640;23.380;2023-04-16T12:00:19;93353.34;;;18.54;45.22
11808;BME280;5961;42.640;23.380;2023-04-16T12:02:50;93349.41;;;18.62;45.21
11808;BME280;5961;42.640;23.380;2023-04-16T12:05:30;93351.25;;;18.72;45.35
11808;BME280;5961;42.640;23.380;2023-04-16T12:08:03;93340.81;;;18.78;45.14
11808;BME280;5961;42.640;23.380;2023-04-16T12:10:33;93351.19;;;18.79;44.60
11808;BME280;5961;42.640;23.380;2023-04-16T12:13:15;93343.44;;;18.85;45.26
11808;BME280;5961;42.640;23.380;2023-04-16T12:15:45;93337.63;;;18.86;44.83
11808;BME280;5961;42.640;23.380;2023-04-16T12:18:15;93338.81;;;18.85;45.07
11808;BME280;5961;42.640;23.380;2023-04-16T12:24:07;93324.78;;;18.67;45.01
11808;BME280;5961;42.640;23.380;2023-04-16T12:26:38;93334.00;;;18.66;44.78
11808;BME280;5961;42.640;23.380;2023-04-16T12:29:17;93314.97;;;18.43;45.10
11808;BME280;5961;42.640;23.380;2023-04-16T12:31:49;93333.34;;;18.55;45.56
11808;BME280;5961;42.640;23.380;2023-04-16T12:34:20;93291.31;;;18.24;45.88
11808;BME280;5961;42.640;23.380;2023-04-16T12:37:04;93313.81;;;18.44;46.10
11808;BME280;5961;42.640;23.380;2023-04-16T12:39:36;93317.31;;;18.37;46.23
11808;BME280;5961;42.640;23.380;2023-04-16T12:42:04;93317.06;;;18.25;46.91
11808;BME280;5961;42.640;23.380;2023-04-16T12:44:36;93311.72;;;18.18;46.75
11808;BME280;5961;42.640;23.380;2023-04-16T12:47:07;93320.22;;;18.13;47.18
11808;BME280;5961;42.640;23.380;2023-04-16T12:49:36;93262.97;;;17.68;48.03
11808;BME280;5961;42.640;23.380;2023-04-16T12:52:05;93316.16;;;17.94;48.65
11808;BME280;5961;42.640;23.380;2023-04-16T12:54:49;93315.41;;;17.90;48.92
11808;BME280;5961;42.640;23.380;2023-04-16T12:57:17;93299.38;;;17.76;50.36
11808;BME280;5961;42.640;23.380;2023-04-16T12:59:49;93251.97;;;17.41;50.22
11808;BME280;5961;42.640;23.380;2023-04-16T13:02:23;93294.47;;;17.64;50.56
11808;BME280;5961;42.640;23.380;2023-04-16T13:04:54;93278.03;;;17.44;50.64
11808;BME280;5961;42.640;23.380;2023-04-16T13:07:22;93266.94;;;17.42;50.44
11808;BME280;5961;42.640;23.380;2023-04-16T13:09:51;93277.25;;;17.47;50.69
11808;BME280;5961;42.640;23.380;2023-04-16T13:12:23;93284.94;;;17.45;50.76
11808;BME280;5961;42.640;23.380;2023-04-16T13:14:52;93284.59;;;17.43;50.99
11808;BME280;5961;42.640;23.380;2023-04-16T13:17:23;93284.97;;;17.38;51.61
11808;BME280;5961;42.640;23.380;2023-04-16T13:19:52;93290.41;;;17.31;52.26
11808;BME280;5961;42.640;23.380;2023-04-16T13:22:20;93293.44;;;17.36;51.87
11808;BME280;5961;42.640;23.380;2023-04-16T13:24:53;93299.97;;;17.32;52.27
11808;BME280;5961;42.640;23.380;2023-04-16T13:27:21;93293.13;;;17.20;51.91
11808;BME280;5961;42.640;23.380;2023-04-16T13:29:49;93298.16;;;17.11;51.66
11808;BME280;5961;42.640;23.380;2023-04-16T13:32:18;93282.91;;;16.94;51.61
11808;BME280;5961;42.640;23.380;2023-04-16T13:34:48;93295.13;;;16.98;52.18
11808;BME280;5961;42.640;23.380;2023-04-16T13:37:17;93309.34;;;16.95;51.89
11808;BME280;5961;42.640;23.380;2023-04-16T13:39:44;93249.28;;;16.61;52.64
11808;BME280;5961;42.640;23.380;2023-04-16T13:42:13;93288.72;;;16.75;52.17
11808;BME280;5961;42.640;23.380;2023-04-16T13:44:43;93289.88;;;16.70;52.15